Time;durP1;ratioP1;P1;durP2;ratioP2;P2;SDS_P1;SDS_P2;PMS_P1;PMS_P2;Temp;Humidity;BMP_temperature;BMP_pressure;BME280_temperature;BME280_humidity;BME280_pressure;Samples;Min_cycle;Max_cycle;Signal;HPM_P1;HPM_P2
2022/11/21 00:01:58;;;;;;;1.20;0.60;;;7.20;99.90;;;;;;5052803;28;20445;-88
2022/11/21 00:04:25;;;;;;;1.30;0.60;;;7.20;99.90;;;;;;5064019;28;20569;-88
2022/11/21 00:06:52;;;;;;;2.70;0.70;;;7.20;99.90;;;;;;5043620;28;20433;-88
2022/11/21 00:09:18;;;;;;;1.50;0.80;;;7.20;99.90;;;;;;5041683;28;20446;-88
2022/11/21 00:11:45;;;;;;;2.10;0.97;;;7.20;99.90;;;;;;5037630;28;20454;-88
2022/11/21 00:14:12;;;;;;;1.03;0.60;;;7.20;99.90;;;;;;5035972;28;20469;-87
2022/11/21 00:16:39;;;;;;;0.90;0.50;;;7.20;99.90;;;;;;5037909;28;20433;-88
2022/11/21 00:19:07;;;;;;;1.40;0.80;;;7.20;99.90;;;;;;5040456;28;20467;-87
2022/11/21 00:21:33;;;;;;;1.30;0.60;;;7.20;99.90;;;;;;5051614;28;20453;-88
2022/11/21 00:24:00;;;;;;;1.50;0.60;;;7.20;99.90;;;;;;5051511;28;20484;-88
2022/11/21 00:26:27;;;;;;;1.00;0.50;;;7.20;99.90;;;;;;5047694;28;20440;-88
2022/11/21 00:28:53;;;;;;;0.90;0.47;;;7.20;99.90;;;;;;5050746;28;20433;-88
2022/11/21 00:31:22;;;;;;;0.90;0.50;;;7.20;99.90;;;;;;5063697;28;20421;-88
2022/11/21 00:33:49;;;;;;;2.60;0.80;;;7.30;99.90;;;;;;5074074;28;20453;-88
2022/11/21 00:36:17;;;;;;;1.83;0.63;;;7.30;99.90;;;;;;5066981;28;20957;-88
2022/11/21 00:38:43;;;;;;;1.40;0.40;;;7.30;99.90;;;;;;5038977;28;20438;-87
2022/11/21 00:41:10;;;;;;;0.80;0.40;;;7.30;99.90;;;;;;5045501;28;20453;-88
2022/11/21 00:43:37;;;;;;;1.20;0.50;;;7.20;99.90;;;;;;5040523;28;20481;-87
2022/11/21 00:46:03;;;;;;;1.53;0.50;;;7.20;99.90;;;;;;5036956;28;20456;-88
2022/11/21 00:48:31;;;;;;;1.00;0.50;;;7.20;99.90;;;;;;5043706;28;20447;-88
2022/11/21 00:50:59;;;;;;;0.97;0.60;;;7.20;99.90;;;;;;5053803;28;20456;-88
2022/11/21 00:53:27;;;;;;;1.60;0.40;;;7.10;99.90;;;;;;5050270;28;20460;-87
2022/11/21 00:55:54;;;;;;;0.80;0.40;;;7.10;99.90;;;;;;5050995;28;20511;-88
2022/11/21 00:58:21;;;;;;;1.03;0.60;;;7.00;99.90;;;;;;5050630;28;20441;-88
2022/11/21 01:00:48;;;;;;;1.00;0.60;;;7.00;99.90;;;;;;5046401;28;20442;-88
2022/11/21 01:03:15;;;;;;;1.00;0.60;;;6.90;99.90;;;;;;5042650;28;20480;-89
2022/11/21 01:05:41;;;;;;;3.30;0.80;;;6.80;99.90;;;;;;5058298;28;20473;-89
2022/11/21 01:08:08;;;;;;;1.40;0.60;;;6.80;99.90;;;;;;5061685;28;20444;-88
2022/11/21 01:10:36;;;;;;;1.77;0.60;;;6.80;99.90;;;;;;5043928;28;20445;-88
2022/11/21 01:13:03;;;;;;;0.90;0.50;;;6.80;99.90;;;;;;5038028;28;20442;-88
2022/11/21 01:15:30;;;;;;;1.27;0.70;;;6.80;99.90;;;;;;5040373;28;20977;-88
2022/11/21 01:17:57;;;;;;;1.00;0.50;;;6.80;99.90;;;;;;5040370;28;20437;-88
2022/11/21 01:20:24;;;;;;;1.83;0.50;;;6.80;99.90;;;;;;5049199;28;20441;-88
2022/11/21 01:22:50;;;;;;;1.30;0.80;;;6.80;99.90;;;;;;5060416;28;20467;-89
2022/11/21 01:25:17;;;;;;;1.00;0.50;;;6.80;99.90;;;;;;5070356;28;20480;-87
2022/11/21 01:27:45;;;;;;;0.80;0.40;;;6.80;99.90;;;;;;5072067;28;20497;-88
2022/11/21 01:30:18;;;;;;;1.27;0.67;;;6.70;99.90;;;;;;5068136;28;20429;-89
2022/11/21 01:32:48;;;;;;;0.90;0.50;;;6.70;99.90;;;;;;5069285;28;20441;-89
2022/11/21 01:35:15;;;;;;;1.27;0.60;;;6.70;99.90;;;;;;5065858;28;20469;-87
2022/11/21 01:37:41;;;;;;;1.77;0.60;;;6.70;99.90;;;;;;5066984;28;20501;-88
2022/11/21 01:40:09;;;;;;;1.00;0.60;;;6.70;99.90;;;;;;5044922;28;20448;-88
2022/11/21 01:42:52;;;;;;;2.07;0.77;;;6.60;99.90;;;;;;5049842;28;21031;-89
2022/11/21 01:45:53;;;;;;;4.23;0.90;;;6.60;99.90;;;;;;5051709;28;20472;-88
2022/11/21 01:48:22;;;;;;;1.00;0.50;;;6.50;99.90;;;;;;5063505;28;20446;-89
2022/11/21 01:50:49;;;;;;;1.20;0.70;;;6.40;99.90;;;;;;5055452;28;20438;-87
2022/11/21 01:53:16;;;;;;;2.43;0.70;;;6.40;99.90;;;;;;5039220;28;20952;-87
2022/11/21 01:55:43;;;;;;;6.10;0.70;;;6.30;99.90;;;;;;5034747;28;20458;-88
2022/11/21 01:58:12;;;;;;;1.10;0.60;;;6.30;99.90;;;;;;5040321;28;20449;-88
2022/11/21 02:00:42;;;;;;;1.77;0.70;;;6.30;99.90;;;;;;5046461;28;20440;-87
2022/11/21 02:03:12;;;;;;;2.47;0.70;;;6.30;99.90;;;;;;5034395;28;20484;-87
2022/11/21 02:05:40;;;;;;;2.70;1.00;;;6.20;99.90;;;;;;5049252;28;20491;-87
2022/11/21 02:08:11;;;;;;;1.20;0.60;;;6.20;99.90;;;;;;5059617;28;20428;-87
2022/11/21 02:10:40;;;;;;;1.13;0.80;;;6.20;99.90;;;;;;5056402;28;20444;-87
2022/11/21 02:13:06;;;;;;;3.30;1.00;;;6.20;99.90;;;;;;5056770;28;20422;-88
2022/11/21 02:15:34;;;;;;;1.63;0.97;;;6.20;99.90;;;;;;5067320;28;20464;-87
2022/11/21 02:18:01;;;;;;;1.70;0.70;;;6.30;99.90;;;;;;5049002;28;20823;-87
2022/11/21 02:20:29;;;;;;;1.73;1.00;;;6.20;99.90;;;;;;5052420;28;20448;-87
2022/11/21 02:23:05;;;;;;;4.80;1.00;;;6.20;99.90;;;;;;5052559;28;20768;-87
2022/11/21 02:25:35;;;;;;;4.13;0.93;;;6.20;99.90;;;;;;5052839;28;20833;-87
2022/11/21 02:28:05;;;;;;;1.27;0.87;;;6.20;99.90;;;;;;5053787;28;20441;-87
2022/11/21 02:30:35;;;;;;;2.57;1.00;;;6.20;99.90;;;;;;5051701;28;20436;-87
2022/11/21 02:33:01;;;;;;;3.90;0.63;;;6.20;99.90;;;;;;5038107;28;20447;-87
2022/11/21 02:35:28;;;;;;;1.27;0.60;;;6.20;99.90;;;;;;5036433;28;20470;-88
2022/11/21 02:37:59;;;;;;;2.37;0.87;;;6.20;99.90;;;;;;5046272;28;20495;-88
2022/11/21 02:40:31;;;;;;;1.67;0.70;;;6.20;99.90;;;;;;5063685;28;20529;-89
2022/11/21 02:43:04;;;;;;;0.87;0.50;;;6.20;99.90;;;;;;5075768;28;20431;-85
2022/11/21 02:45:35;;;;;;;0.90;0.40;;;6.20;99.90;;;;;;5073546;28;20445;-85
2022/11/21 02:48:02;;;;;;;1.90;0.70;;;6.20;99.90;;;;;;5058367;28;20452;-88
2022/11/21 02:50:31;;;;;;;1.57;0.60;;;6.10;99.90;;;;;;5053141;28;20469;-88
2022/11/21 02:52:57;;;;;;;1.80;0.73;;;6.10;99.90;;;;;;5059879;28;20451;-88
2022/11/21 02:55:25;;;;;;;1.47;0.60;;;6.10;99.90;;;;;;5049141;28;20835;-88
2022/11/21 02:57:52;;;;;;;2.40;0.80;;;6.10;99.90;;;;;;5062999;28;20432;-88
2022/11/21 03:00:21;;;;;;;2.80;0.93;;;6.10;99.90;;;;;;5059326;28;20438;-87
2022/11/21 03:02:48;;;;;;;1.80;0.70;;;6.10;99.90;;;;;;5041079;28;20453;-87
2022/11/21 03:05:16;;;;;;;0.83;0.50;;;6.20;99.90;;;;;;5041381;28;20481;-87
2022/11/21 03:07:43;;;;;;;1.00;0.50;;;6.10;99.90;;;;;;5048551;28;20441;-87
2022/11/21 03:10:11;;;;;;;1.43;0.80;;;6.10;99.90;;;;;;5051288;28;20448;-87
2022/11/21 03:12:38;;;;;;;1.50;0.80;;;6.10;99.90;;;;;;5071400;28;20418;-87
2022/11/21 03:15:09;;;;;;;1.10;0.60;;;6.10;99.90;;;;;;5072493;28;20467;-86
2022/11/21 03:17:37;;;;;;;1.30;0.60;;;6.00;99.90;;;;;;5050133;28;20441;-87
2022/11/21 03:20:05;;;;;;;1.80;0.90;;;6.00;99.90;;;;;;5067068;28;20452;-87
2022/11/21 03:22:32;;;;;;;1.20;0.43;;;6.00;99.90;;;;;;5061492;28;20441;-87
2022/11/21 03:24:58;;;;;;;1.03;0.57;;;5.90;99.90;;;;;;5046673;28;20480;-87
2022/11/21 03:27:25;;;;;;;1.30;0.70;;;5.90;99.90;;;;;;5052775;28;20925;-87
2022/11/21 03:29:52;;;;;;;1.27;0.63;;;6.00;99.90;;;;;;5050654;28;20441;-87
2022/11/21 03:32:19;;;;;;;1.00;0.60;;;5.90;99.90;;;;;;5050681;28;20448;-87
2022/11/21 03:34:47;;;;;;;4.00;0.73;;;6.00;99.90;;;;;;5046046;28;20452;-87
2022/11/21 03:37:14;;;;;;;2.70;0.60;;;6.00;99.90;;;;;;5068290;28;20508;-87
2022/11/21 03:39:41;;;;;;;1.23;0.70;;;6.20;99.90;;;;;;5068932;28;20449;-86
2022/11/21 03:42:08;;;;;;;1.10;0.47;;;6.20;99.90;;;;;;5014372;28;1059215;-87
2022/11/21 03:44:35;;;;;;;1.00;0.50;;;6.20;99.90;;;;;;5041490;28;20481;-87
2022/11/21 03:47:01;;;;;;;1.57;0.50;;;6.30;99.90;;;;;;5034988;28;20450;-87
2022/11/21 03:49:28;;;;;;;4.30;0.80;;;6.30;99.90;;;;;;5039285;28;20441;-86
2022/11/21 03:51:56;;;;;;;0.83;0.47;;;6.40;99.90;;;;;;5049907;28;20441;-87
2022/11/21 03:54:23;;;;;;;0.80;0.50;;;6.50;99.90;;;;;;5035375;28;20462;-87
2022/11/21 03:56:49;;;;;;;1.30;0.70;;;6.50;99.90;;;;;;5042316;28;20442;-87
2022/11/21 03:59:16;;;;;;;1.90;1.10;;;6.60;99.90;;;;;;5051514;28;20447;-87
2022/11/21 04:01:43;;;;;;;0.83;0.40;;;6.60;99.90;;;;;;5049228;28;20443;-87
2022/11/21 04:04:10;;;;;;;1.77;0.43;;;6.60;99.90;;;;;;5063464;28;20481;-88
2022/11/21 04:06:37;;;;;;;2.13;0.67;;;6.70;99.90;;;;;;5065500;28;20418;-87
2022/11/21 04:09:05;;;;;;;1.30;0.70;;;6.60;99.90;;;;;;5049395;28;20437;-87
2022/11/21 04:11:31;;;;;;;0.93;0.60;;;6.70;99.90;;;;;;5056898;28;20445;-87
2022/11/21 04:13:58;;;;;;;1.23;0.63;;;6.70;99.90;;;;;;5063946;28;20453;-87
2022/11/21 04:16:25;;;;;;;1.00;0.60;;;6.60;99.90;;;;;;5072648;28;20414;-87
2022/11/21 04:18:52;;;;;;;1.73;1.00;;;6.60;99.90;;;;;;5071069;28;20428;-86
2022/11/21 04:21:18;;;;;;;1.90;0.60;;;6.70;99.90;;;;;;5073872;28;20441;-87
2022/11/21 04:23:45;;;;;;;1.97;0.50;;;6.70;99.90;;;;;;5054343;28;20482;-87
2022/11/21 04:26:13;;;;;;;1.17;0.50;;;6.70;99.90;;;;;;5041802;28;20438;-87
2022/11/21 04:28:40;;;;;;;1.90;0.60;;;6.70;99.90;;;;;;5052090;28;20441;-87
2022/11/21 04:31:08;;;;;;;1.00;0.60;;;6.70;99.90;;;;;;5052205;28;20512;-87
2022/11/21 04:33:35;;;;;;;3.07;0.67;;;6.70;99.90;;;;;;5053594;28;20452;-87
2022/11/21 04:36:02;;;;;;;1.93;0.60;;;6.70;99.90;;;;;;5037066;28;20455;-87
2022/11/21 04:38:28;;;;;;;1.20;0.50;;;6.70;99.90;;;;;;5039242;28;20442;-86
2022/11/21 04:40:55;;;;;;;3.87;0.97;;;6.70;99.90;;;;;;5040393;28;20812;-86
2022/11/21 04:43:23;;;;;;;2.60;1.07;;;6.80;99.90;;;;;;5038949;28;20476;-87
2022/11/21 04:45:50;;;;;;;1.10;0.70;;;6.80;99.90;;;;;;5036952;28;20474;-87
2022/11/21 04:48:17;;;;;;;1.00;0.43;;;6.80;99.90;;;;;;5041295;28;20456;-86
2022/11/21 04:50:45;;;;;;;2.03;0.60;;;6.80;99.90;;;;;;5043580;28;20441;-86
2022/11/21 04:53:11;;;;;;;1.97;0.60;;;6.70;99.90;;;;;;5048906;28;20445;-87
2022/11/21 04:55:38;;;;;;;2.63;1.10;;;6.70;99.90;;;;;;5050989;28;20464;-86
2022/11/21 04:58:05;;;;;;;1.73;0.60;;;6.80;99.90;;;;;;5051209;28;20863;-86
2022/11/21 05:00:33;;;;;;;1.60;0.77;;;6.80;99.90;;;;;;5044147;28;20456;-86
2022/11/21 05:03:05;;;;;;;1.30;0.70;;;6.80;99.90;;;;;;5035343;28;20930;-87
2022/11/21 05:05:32;;;;;;;2.33;0.70;;;6.80;99.90;;;;;;5038327;28;20488;-86
2022/11/21 05:07:59;;;;;;;2.00;0.70;;;6.90;99.90;;;;;;5041596;28;20434;-86
2022/11/21 05:10:26;;;;;;;2.83;0.60;;;6.80;99.90;;;;;;5067908;28;20516;-86
2022/11/21 05:15:46;;;;;;;1.50;0.60;;;6.80;99.90;;;;;;5050331;28;20460;-87
2022/11/21 05:18:13;;;;;;;3.37;0.63;;;6.80;99.90;;;;;;5056924;28;20446;-87
2022/11/21 05:20:39;;;;;;;1.87;0.60;;;6.80;99.90;;;;;;5068467;28;20437;-86
2022/11/21 05:23:06;;;;;;;2.73;1.03;;;6.80;99.90;;;;;;5052590;28;20445;-86
2022/11/21 05:25:33;;;;;;;1.03;0.70;;;6.70;99.90;;;;;;5051226;28;20485;-86
2022/11/21 05:28:00;;;;;;;1.50;0.90;;;6.70;99.90;;;;;;5051427;28;20445;-87
2022/11/21 05:30:26;;;;;;;2.00;1.00;;;6.70;99.90;;;;;;5051733;28;20436;-86
2022/11/21 05:32:54;;;;;;;2.27;1.00;;;6.70;99.90;;;;;;5067267;28;20429;-86
2022/11/21 05:35:21;;;;;;;2.50;1.00;;;6.70;99.90;;;;;;5073899;28;20447;-86
2022/11/21 05:37:48;;;;;;;1.20;0.70;;;6.70;99.90;;;;;;5052003;28;21044;-87
2022/11/21 05:40:15;;;;;;;2.47;1.03;;;6.70;99.90;;;;;;5052255;28;20448;-86
2022/11/21 05:45:26;;;;;;;2.60;1.07;;;6.40;99.90;;;;;;5061811;28;20502;-86
2022/11/21 05:47:54;;;;;;;1.50;0.70;;;6.40;99.90;;;;;;5076271;28;20447;-87
2022/11/21 05:50:21;;;;;;;1.50;0.90;;;6.50;99.90;;;;;;5070973;28;20930;-87
2022/11/21 05:52:48;;;;;;;2.33;1.10;;;6.60;99.90;;;;;;5041208;28;20436;-87
2022/11/21 05:55:15;;;;;;;3.47;1.50;;;6.50;99.90;;;;;;5043240;28;20453;-87
2022/11/21 05:57:42;;;;;;;2.67;1.30;;;6.60;99.90;;;;;;5046193;28;20968;-87
2022/11/21 06:00:09;;;;;;;2.30;1.40;;;6.60;99.90;;;;;;5052637;28;20445;-87
2022/11/21 06:05:22;;;;;;;1.70;1.00;;;6.70;99.90;;;;;;5053990;28;20539;-87
2022/11/21 06:07:49;;;;;;;2.67;1.20;;;6.70;99.90;;;;;;5054489;28;20531;-88
2022/11/21 06:10:16;;;;;;;1.53;1.13;;;6.60;99.90;;;;;;5046771;28;20448;-88
2022/11/21 06:12:43;;;;;;;4.30;1.00;;;6.60;99.90;;;;;;5044502;28;20440;-87
2022/11/21 06:15:10;;;;;;;2.97;1.13;;;6.60;99.90;;;;;;5045187;28;20915;-87
2022/11/21 06:17:37;;;;;;;2.40;1.00;;;6.70;99.90;;;;;;5047755;28;20925;-87
2022/11/21 06:20:04;;;;;;;2.33;1.50;;;6.70;99.90;;;;;;5054623;28;20920;-88
2022/11/21 06:22:33;;;;;;;2.03;1.33;;;6.70;99.90;;;;;;5052446;28;20444;-87
2022/11/21 06:24:59;;;;;;;3.03;1.17;;;6.70;99.90;;;;;;5054398;28;20484;-88
2022/11/21 06:27:26;;;;;;;1.87;1.60;;;6.80;99.90;;;;;;5054179;28;20440;-87
2022/11/21 06:29:53;;;;;;;5.63;1.10;;;6.80;99.90;;;;;;5055212;28;20436;-87
2022/11/21 06:32:19;;;;;;;2.97;1.40;;;6.90;99.90;;;;;;5054256;28;20444;-87
2022/11/21 06:34:46;;;;;;;3.73;1.40;;;6.90;99.90;;;;;;5054051;28;20459;-87
2022/11/21 06:37:13;;;;;;;2.27;1.10;;;6.90;99.90;;;;;;5054319;28;20965;-88
2022/11/21 06:39:41;;;;;;;2.97;1.43;;;6.90;99.90;;;;;;5047795;28;20437;-87
2022/11/21 06:42:08;;;;;;;3.57;1.30;;;6.90;99.90;;;;;;5047909;28;20445;-87
2022/11/21 06:44:34;;;;;;;2.07;1.33;;;6.90;99.90;;;;;;5046157;28;20564;-88
2022/11/21 06:47:01;;;;;;;2.90;2.20;;;7.00;99.90;;;;;;5047364;28;20442;-88
2022/11/21 06:49:28;;;;;;;3.10;1.60;;;7.00;99.90;;;;;;5068882;28;20441;-87
2022/11/21 06:51:55;;;;;;;2.17;1.33;;;7.00;99.90;;;;;;5073189;28;20445;-88
2022/11/21 06:54:21;;;;;;;3.80;1.40;;;7.00;99.90;;;;;;5061804;28;20463;-88
2022/11/21 06:56:52;;;;;;;3.57;1.70;;;6.90;99.90;;;;;;5050170;28;20830;-88
2022/11/21 06:59:19;;;;;;;2.20;1.33;;;7.00;99.90;;;;;;5047552;28;20432;-88
2022/11/21 07:01:46;;;;;;;3.40;1.03;;;7.00;99.90;;;;;;5059188;28;20441;-88
2022/11/21 07:04:12;;;;;;;2.30;1.23;;;7.00;99.90;;;;;;5076285;28;20448;-87
2022/11/21 07:06:39;;;;;;;2.50;1.00;;;6.90;99.90;;;;;;5073981;28;20417;-88
2022/11/21 07:09:06;;;;;;;1.63;0.97;;;6.80;99.90;;;;;;5078347;28;20418;-88
2022/11/21 07:11:35;;;;;;;1.73;1.13;;;6.70;99.90;;;;;;5063701;28;21964;-88
2022/11/21 07:14:02;;;;;;;1.77;1.07;;;6.60;99.90;;;;;;5054159;28;20453;-88
2022/11/21 07:16:31;;;;;;;4.60;1.40;;;6.50;99.90;;;;;;5052947;28;20442;-88
2022/11/21 07:18:59;;;;;;;1.77;1.07;;;6.40;99.90;;;;;;5042727;28;21019;-87
2022/11/21 07:21:26;;;;;;;1.57;1.23;;;6.30;99.90;;;;;;5053542;28;20598;-88
2022/11/21 07:23:53;;;;;;;2.23;1.00;;;6.30;99.90;;;;;;5054976;28;20995;-88
2022/11/21 07:26:19;;;;;;;1.77;1.00;;;6.30;99.90;;;;;;5054377;28;20977;-88
2022/11/21 07:28:46;;;;;;;1.77;0.90;;;6.30;99.90;;;;;;5047017;28;20807;-87
2022/11/21 07:31:14;;;;;;;2.90;1.10;;;6.40;99.90;;;;;;5054229;28;20852;-88
2022/11/21 07:33:43;;;;;;;2.90;1.00;;;6.50;99.90;;;;;;5053767;28;20445;-87
2022/11/21 07:36:09;;;;;;;1.93;1.10;;;6.50;99.90;;;;;;5073670;28;20519;-88
2022/11/21 07:38:36;;;;;;;5.10;1.80;;;6.60;99.90;;;;;;5060550;28;20448;-88
2022/11/21 07:41:03;;;;;;;2.43;1.40;;;6.70;99.90;;;;;;5054358;28;20443;-89
2022/11/21 07:43:30;;;;;;;1.40;1.20;;;6.60;99.90;;;;;;5068744;28;20442;-88
2022/11/21 07:45:56;;;;;;;1.73;1.30;;;6.60;99.90;;;;;;5064506;28;20548;-88
2022/11/21 07:48:24;;;;;;;2.33;1.63;;;6.60;99.90;;;;;;5064344;28;20446;-88
2022/11/21 07:50:51;;;;;;;3.67;1.60;;;6.50;99.90;;;;;;5053447;28;20452;-88
2022/11/21 07:53:18;;;;;;;2.30;1.37;;;6.50;99.90;;;;;;5042135;28;20950;-88
2022/11/21 07:55:45;;;;;;;4.40;2.17;;;6.70;99.90;;;;;;5041291;28;20459;-88
2022/11/21 07:58:14;;;;;;;3.10;1.83;;;6.80;99.90;;;;;;5045825;28;20446;-88
2022/11/21 08:00:42;;;;;;;9.50;1.60;;;6.80;99.90;;;;;;5050384;28;20449;-88
2022/11/21 08:03:10;;;;;;;4.00;2.10;;;6.80;99.90;;;;;;5052313;28;20949;-88
2022/11/21 08:05:39;;;;;;;3.60;1.30;;;6.80;99.90;;;;;;5052079;28;20516;-88
2022/11/21 08:08:06;;;;;;;4.90;1.60;;;6.80;99.90;;;;;;5052867;28;20452;-87
2022/11/21 08:10:33;;;;;;;5.53;1.60;;;6.80;99.90;;;;;;5068891;28;20444;-87
2022/11/21 08:13:00;;;;;;;1.90;1.33;;;6.80;99.90;;;;;;5058479;28;20434;-87
2022/11/21 08:15:27;;;;;;;3.37;1.53;;;6.80;99.90;;;;;;5034119;28;21138;-88
2022/11/21 08:17:54;;;;;;;2.90;1.90;;;6.80;99.90;;;;;;5044538;28;20442;-88
2022/11/21 08:20:20;;;;;;;1.80;1.30;;;6.90;99.90;;;;;;5042954;28;20441;-87
2022/11/21 08:22:48;;;;;;;4.67;1.60;;;7.00;99.90;;;;;;5041940;28;20441;-88
2022/11/21 08:25:15;;;;;;;6.37;1.67;;;7.00;99.90;;;;;;5044639;28;20492;-88
2022/11/21 08:27:42;;;;;;;2.53;1.60;;;7.10;99.90;;;;;;5051203;28;20956;-88
2022/11/21 08:30:11;;;;;;;2.30;1.60;;;7.20;99.90;;;;;;5069659;28;20437;-87
2022/11/21 08:32:38;;;;;;;4.93;1.60;;;7.30;99.90;;;;;;5056974;28;20442;-88
2022/11/21 08:35:06;;;;;;;4.90;2.70;;;7.40;99.90;;;;;;5053017;28;20452;-87
2022/11/21 08:37:32;;;;;;;4.80;2.57;;;7.60;99.90;;;;;;5054324;28;20453;-87
2022/11/21 08:40:01;;;;;;;3.87;1.90;;;7.70;99.90;;;;;;5052151;28;20524;-87
2022/11/21 08:42:28;;;;;;;4.20;1.63;;;8.10;99.90;;;;;;5052898;28;21144;-87
2022/11/21 08:44:54;;;;;;;3.67;2.10;;;8.50;99.90;;;;;;5052664;28;20567;-88
2022/11/21 08:47:21;;;;;;;2.37;1.67;;;8.80;99.90;;;;;;5045363;28;20823;-87
2022/11/21 08:49:48;;;;;;;3.37;1.73;;;9.10;99.90;;;;;;5056804;28;20441;-88
2022/11/21 08:52:16;;;;;;;3.10;1.60;;;9.20;99.90;;;;;;5062658;28;20460;-88
2022/11/21 08:54:44;;;;;;;3.43;2.10;;;9.30;99.90;;;;;;5059044;28;20467;-88
2022/11/21 08:57:12;;;;;;;4.50;2.20;;;9.20;99.90;;;;;;5062643;28;20437;-88
2022/11/21 08:59:39;;;;;;;2.63;1.93;;;9.10;99.90;;;;;;5061404;28;20450;-88
2022/11/21 09:02:06;;;;;;;3.13;1.60;;;9.20;99.90;;;;;;5052491;28;20467;-88
2022/11/21 09:04:33;;;;;;;4.83;1.80;;;9.50;99.90;;;;;;5050423;28;21008;-87
2022/11/21 09:07:00;;;;;;;4.50;1.80;;;10.10;99.90;;;;;;5050105;28;20481;-87
2022/11/21 09:09:27;;;;;;;8.50;2.20;;;11.10;99.90;;;;;;5052970;28;20451;-86
2022/11/21 09:11:54;;;;;;;3.73;1.87;;;11.00;99.90;;;;;;5065860;28;20447;-86
2022/11/21 09:19:51;;;;;;;7.63;1.67;;;11.30;99.90;;;;;;5063761;28;20433;-86
2022/11/21 09:22:18;;;;;;;4.07;1.53;;;11.00;99.90;;;;;;5052830;28;20519;-87
2022/11/21 09:24:44;;;;;;;2.80;1.93;;;11.00;99.90;;;;;;5069158;28;20449;-83
2022/11/21 09:27:11;;;;;;;4.47;1.23;;;11.00;99.90;;;;;;5064080;28;20439;-86
2022/11/21 09:29:39;;;;;;;6.40;1.73;;;10.90;99.90;;;;;;5050262;28;20436;-85
2022/11/21 09:32:06;;;;;;;8.30;2.10;;;11.20;99.90;;;;;;5052136;28;20451;-84
2022/11/21 09:34:32;;;;;;;4.70;2.00;;;11.30;99.90;;;;;;5050231;28;20480;-88
2022/11/21 09:37:00;;;;;;;4.37;1.33;;;11.80;99.90;;;;;;5060093;28;20421;-86
2022/11/21 09:39:27;;;;;;;5.43;2.07;;;13.00;99.00;;;;;;5061884;28;20440;-86
2022/11/21 09:42:06;;;;;;;7.00;3.53;;;13.50;97.70;;;;;;5052314;28;20443;-86
2022/11/21 09:44:47;;;;;;;4.10;1.83;;;13.70;97.00;;;;;;5051967;28;20460;-86
2022/11/21 09:47:23;;;;;;;4.10;2.50;;;13.70;97.20;;;;;;5049186;28;20491;-86
2022/11/21 09:49:56;;;;;;;7.10;4.30;;;13.80;96.70;;;;;;5051696;28;20939;-86
2022/11/21 09:52:29;;;;;;;15.17;3.90;;;12.60;96.60;;;;;;5050404;28;20753;-86
2022/11/21 09:55:03;;;;;;;4.33;2.50;;;11.80;98.30;;;;;;5052068;28;20475;-85
2022/11/21 09:57:32;;;;;;;5.90;2.23;;;11.80;99.20;;;;;;5067452;28;20496;-87
2022/11/21 10:00:02;;;;;;;7.57;2.47;;;12.60;99.00;;;;;;5067661;28;20464;-86
2022/11/21 10:02:29;;;;;;;4.70;1.90;;;13.30;97.40;;;;;;5069646;28;20429;-88
2022/11/21 10:04:59;;;;;;;2.30;1.23;;;13.80;95.80;;;;;;5067014;28;20457;-85
2022/11/21 10:07:30;;;;;;;7.03;2.70;;;14.40;95.50;;;;;;5065347;28;20520;-86
2022/11/21 10:10:16;;;;;;;8.80;2.67;;;15.80;94.70;;;;;;5063834;28;20431;-87
2022/11/21 10:12:59;;;;;;;3.37;1.50;;;16.30;92.00;;;;;;5065401;28;20441;-86
2022/11/21 10:15:38;;;;;;;4.97;1.83;;;15.70;91.40;;;;;;5051230;28;20448;-86
2022/11/21 10:18:26;;;;;;;3.10;2.13;;;15.60;91.60;;;;;;5048187;28;20531;-86
2022/11/21 10:20:59;;;;;;;7.57;2.13;;;16.70;91.90;;;;;;5049138;28;20532;-86
2022/11/21 10:23:36;;;;;;;8.73;1.97;;;18.10;88.50;;;;;;5052302;28;20456;-85
2022/11/21 10:26:15;;;;;;;3.70;1.70;;;18.20;80.80;;;;;;5050232;28;20477;-86
2022/11/21 10:28:47;;;;;;;6.60;1.70;;;17.60;79.30;;;;;;5047154;28;20502;-86
2022/11/21 10:31:17;;;;;;;4.30;1.10;;;17.30;83.10;;;;;;5049023;28;20451;-86
2022/11/21 10:33:44;;;;;;;4.67;1.60;;;17.90;83.30;;;;;;5066085;28;20443;-87
2022/11/21 10:36:22;;;;;;;2.67;1.57;;;17.80;81.60;;;;;;5051382;28;20444;-86
2022/11/21 10:38:52;;;;;;;3.53;1.47;;;19.60;81.50;;;;;;5054210;28;20432;-85
2022/11/21 10:41:25;;;;;;;4.20;1.67;;;21.70;73.30;;;;;;5049789;28;20448;-86
2022/11/21 10:46:57;;;;;;;5.50;1.63;;;23.70;61.60;;;;;;5048551;28;20534;-86
2022/11/21 10:49:25;;;;;;;5.20;3.93;;;22.30;61.60;;;;;;5050745;28;20452;-86
2022/11/21 10:52:00;;;;;;;5.00;2.10;;;22.50;62.20;;;;;;5057218;28;20452;-86
2022/11/21 10:54:33;;;;;;;6.53;2.30;;;20.30;63.10;;;;;;5078088;28;20640;-86
2022/11/21 10:57:02;;;;;;;3.30;1.90;;;18.60;67.30;;;;;;5060741;28;20443;-85
2022/11/21 10:59:30;;;;;;;2.50;1.27;;;18.20;70.90;;;;;;5064076;28;20441;-86
2022/11/21 11:02:00;;;;;;;3.30;1.20;;;17.30;71.80;;;;;;5060031;28;20463;-86
2022/11/21 11:04:29;;;;;;;3.60;1.60;;;17.60;70.70;;;;;;5080501;28;20453;-87
2022/11/21 11:06:58;;;;;;;4.83;1.30;;;17.90;70.20;;;;;;5071758;28;20479;-87
2022/11/21 11:09:31;;;;;;;4.30;1.53;;;18.70;70.80;;;;;;5071242;28;20421;-87
2022/11/21 11:12:22;;;;;;;5.00;1.70;;;18.60;68.90;;;;;;5076651;28;20438;-86
2022/11/21 11:14:52;;;;;;;9.33;2.13;;;17.20;70.20;;;;;;5071476;28;20445;-85
2022/11/21 11:17:29;;;;;;;4.10;2.00;;;16.50;74.50;;;;;;5062782;28;20430;-85
2022/11/21 11:20:06;;;;;;;5.50;1.67;;;16.50;75.00;;;;;;5054305;28;20459;-86
2022/11/21 11:22:33;;;;;;;4.60;1.83;;;15.40;74.60;;;;;;5049761;28;20437;-86
2022/11/21 11:25:04;;;;;;;3.33;1.80;;;15.50;78.10;;;;;;5049402;28;20459;-86
2022/11/21 11:27:31;;;;;;;4.17;1.83;;;15.10;77.50;;;;;;5049024;28;20480;-86
2022/11/21 11:30:06;;;;;;;3.63;1.47;;;14.50;79.10;;;;;;5066546;28;20444;-86
2022/11/21 11:32:40;;;;;;;8.27;2.60;;;15.10;79.00;;;;;;5068778;28;20439;-86
2022/11/21 11:35:20;;;;;;;5.20;2.20;;;15.60;79.10;;;;;;5050608;28;20476;-86
2022/11/21 11:37:58;;;;;;;3.63;1.73;;;17.00;79.60;;;;;;5048705;28;20448;-86
2022/11/21 11:40:30;;;;;;;4.47;2.60;;;19.30;71.90;;;;;;5056648;28;20435;-87
2022/11/21 11:48:55;;;;;;;3.70;1.80;;;17.00;67.50;;;;;;5065533;28;20508;-86
2022/11/21 11:51:25;;;;;;;8.90;1.90;;;16.60;69.20;;;;;;5049790;28;20499;-86
2022/11/21 11:53:57;;;;;;;2.50;1.00;;;17.50;68.10;;;;;;5052761;28;20990;-85
2022/11/21 11:56:27;;;;;;;6.63;1.50;;;16.20;65.70;;;;;;5051605;28;20452;-86
2022/11/21 11:58:59;;;;;;;4.30;1.93;;;15.10;71.30;;;;;;5048370;28;20941;-87
2022/11/21 12:01:33;;;;;;;6.73;2.50;;;16.10;71.70;;;;;;5047827;28;20445;-86
2022/11/21 12:04:05;;;;;;;3.20;2.33;;;19.00;67.40;;;;;;5048041;28;20474;-86
2022/11/21 12:06:37;;;;;;;5.20;1.83;;;20.00;62.80;;;;;;5046706;28;20467;-86
2022/11/21 12:09:11;;;;;;;5.10;1.77;;;17.70;61.60;;;;;;5046660;28;20817;-87
2022/11/21 12:12:07;;;;;;;6.80;1.87;;;17.40;65.40;;;;;;5047017;28;20434;-86
2022/11/21 12:17:38;;;;;;;2.27;1.00;;;17.50;68.20;;;;;;5049085;28;20535;-86
2022/11/21 12:20:15;;;;;;;2.40;1.17;;;17.20;65.60;;;;;;5047107;28;20437;-87
2022/11/21 12:22:43;;;;;;;4.03;1.70;;;15.70;67.00;;;;;;5052350;28;20444;-87
2022/11/21 12:25:12;;;;;;;3.70;1.30;;;14.80;70.70;;;;;;5054177;28;20494;-86
2022/11/21 12:27:41;;;;;;;4.17;1.10;;;13.80;74.60;;;;;;5052644;28;20519;-86
2022/11/21 12:30:47;;;;;;;3.80;1.27;;;12.90;78.20;;;;;;5069200;28;20448;-86
2022/11/21 12:33:21;;;;;;;5.67;1.40;;;12.50;81.10;;;;;;4992170;28;20440;-86
2022/11/21 12:36:17;;;;;;;3.23;1.30;;;12.60;80.00;;;;;;5055737;28;20496;-86
2022/11/21 12:39:02;;;;;;;4.60;1.40;;;12.60;80.50;;;;;;5061545;28;20448;-87
2022/11/21 12:44:34;;;;;;;6.73;2.77;;;12.50;81.50;;;;;;5067076;28;20475;-86
2022/11/21 12:47:12;;;;;;;3.33;1.50;;;12.50;82.70;;;;;;5058036;28;20472;-87
2022/11/21 12:55:35;;;;;;;3.70;1.30;;;13.50;82.90;;;;;;5058860;28;20470;-86
2022/11/21 12:58:13;;;;;;;3.00;1.30;;;13.70;81.90;;;;;;5053279;28;20439;-87
2022/11/21 13:00:52;;;;;;;4.17;1.93;;;13.80;81.60;;;;;;5051678;28;20831;-87
2022/11/21 13:03:34;;;;;;;4.10;1.70;;;14.10;80.30;;;;;;5044323;28;20494;-87
2022/11/21 13:06:02;;;;;;;4.20;1.60;;;14.30;79.10;;;;;;5047604;28;20531;-87
2022/11/21 13:08:34;;;;;;;4.57;1.60;;;14.10;78.80;;;;;;5047220;28;20445;-87
2022/11/21 13:14:00;;;;;;;4.17;1.60;;;13.60;80.80;;;;;;5047658;28;20565;-87
2022/11/21 13:16:36;;;;;;;3.13;1.53;;;13.60;80.90;;;;;;5051462;28;20437;-87
2022/11/21 13:19:12;;;;;;;8.30;1.77;;;13.50;80.80;;;;;;5055209;28;20433;-87
2022/11/21 13:21:46;;;;;;;8.73;1.50;;;13.70;80.30;;;;;;5046270;28;20460;-87
2022/11/21 13:24:53;;;;;;;3.53;1.60;;;14.50;79.90;;;;;;5050945;28;20464;-87
2022/11/21 13:27:34;;;;;;;6.33;1.67;;;14.90;77.30;;;;;;5046862;28;20488;-87
2022/11/21 13:30:22;;;;;;;6.20;1.40;;;14.80;77.40;;;;;;5050248;28;20937;-87
2022/11/21 13:32:51;;;;;;;5.30;1.77;;;14.40;76.20;;;;;;5048617;28;20447;-87
2022/11/21 13:35:59;;;;;;;3.60;1.27;;;14.10;79.10;;;;;;5043829;28;20471;-87
2022/11/21 13:38:26;;;;;;;4.10;1.67;;;14.20;78.40;;;;;;4953755;28;20441;-87
2022/11/21 13:43:39;;;;;;;7.37;4.73;;;13.90;78.80;;;;;;5013837;28;20444;-87
2022/11/21 13:46:06;;;;;;;2.00;1.00;;;13.60;79.10;;;;;;5050102;28;20445;-87